Time;durP1;ratioP1;P1;durP2;ratioP2;P2;SDS_P1;SDS_P2;PMS_P1;PMS_P2;Temp;Humidity;BMP_temperature;BMP_pressure;BME280_temperature;BME280_humidity;BME280_pressure;Samples;Min_cycle;Max_cycle;Signal;HPM_P1;HPM_P2
2022/01/16 00:02:07;;;;;;;0.50;0.10;;;4.80;1.00;;;;;;5094200;28;20518;-77
2022/01/16 00:04:34;;;;;;;0.50;0.10;;;4.80;1.00;;;;;;5079782;28;20453;-78
2022/01/16 00:07:04;;;;;;;0.50;0.10;;;4.80;1.00;;;;;;5072012;28;20527;-78
2022/01/16 00:09:32;;;;;;;0.50;0.10;;;4.80;1.00;;;;;;5072290;28;20454;-79
2022/01/16 00:12:01;;;;;;;0.50;0.10;;;4.80;1.00;;;;;;5073725;28;20464;-77
2022/01/16 00:14:30;;;;;;;0.50;0.10;;;4.80;1.00;;;;;;5083614;28;20473;-78
2022/01/16 00:17:00;;;;;;;0.50;0.10;;;5.20;1.00;;;;;;5081886;28;20430;-77
2022/01/16 00:19:28;;;;;;;0.50;0.10;;;4.70;1.00;;;;;;5079298;28;20470;-78
2022/01/16 00:21:57;;;;;;;0.50;0.10;;;4.80;1.00;;;;;;5068728;28;20440;-78
2022/01/16 00:24:25;;;;;;;0.50;0.10;;;4.80;1.00;;;;;;5077068;28;20428;-77
2022/01/16 00:26:53;;;;;;;0.50;0.10;;;4.80;1.00;;;;;;5088972;28;20459;-77
2022/01/16 00:29:21;;;;;;;0.50;0.10;;;4.80;1.00;;;;;;5084862;28;20470;-78
2022/01/16 00:31:49;;;;;;;0.50;0.10;;;4.80;1.00;;;;;;5081554;28;20453;-77
2022/01/16 00:34:18;;;;;;;0.50;0.10;;;4.70;1.00;;;;;;5082552;28;20950;-77
2022/01/16 00:36:46;;;;;;;0.50;0.10;;;4.70;1.00;;;;;;5091173;28;20489;-78
2022/01/16 00:39:14;;;;;;;0.50;0.10;;;4.70;1.00;;;;;;5081864;28;20459;-78
2022/01/16 00:41:43;;;;;;;0.50;0.10;;;4.70;1.00;;;;;;5065946;28;20447;-79
2022/01/16 00:44:11;;;;;;;0.50;0.10;;;4.70;1.00;;;;;;5062846;28;20493;-78
2022/01/16 00:46:39;;;;;;;0.50;0.10;;;4.70;1.00;;;;;;5062615;28;20448;-79
2022/01/16 00:49:07;;;;;;;1.13;0.57;;;4.70;1.00;;;;;;5064134;28;20464;-79
2022/01/16 00:51:37;;;;;;;0.50;0.10;;;4.70;1.00;;;;;;5078806;28;20447;-77
2022/01/16 00:54:05;;;;;;;0.50;0.10;;;4.70;1.00;;;;;;5088232;28;20429;-77
2022/01/16 00:56:33;;;;;;;1.80;0.50;;;4.70;1.00;;;;;;5086730;28;20457;-77
2022/01/16 00:59:01;;;;;;;2.17;2.07;;;4.70;1.00;;;;;;5075796;28;20551;-79
2022/01/16 01:01:28;;;;;;;0.60;0.47;;;4.70;1.00;;;;;;5066344;28;20451;-77
2022/01/16 01:03:57;;;;;;;0.50;0.10;;;4.70;1.00;;;;;;5069651;28;20550;-79
2022/01/16 01:06:25;;;;;;;0.50;0.20;;;4.70;1.00;;;;;;5090347;28;20433;-77
2022/01/16 01:08:54;;;;;;;2.80;2.57;;;4.60;1.00;;;;;;5088582;28;20466;-77
2022/01/16 01:11:27;;;;;;;0.50;0.10;;;4.60;1.00;;;;;;5085513;28;20480;-80
2022/01/16 01:14:08;;;;;;;0.50;0.10;;;4.50;1.00;;;;;;5079951;28;20429;-80
2022/01/16 01:16:50;;;;;;;0.50;0.10;;;4.50;1.00;;;;;;5092749;28;20529;-77
2022/01/16 01:19:20;;;;;;;0.50;0.20;;;4.50;1.00;;;;;;5079229;28;20466;-78
2022/01/16 01:21:48;;;;;;;0.50;0.10;;;4.50;1.00;;;;;;5061345;28;20456;-78
2022/01/16 01:24:17;;;;;;;0.50;0.10;;;4.50;1.00;;;;;;5061239;28;20472;-78
2022/01/16 01:26:53;;;;;;;0.50;0.10;;;4.50;1.00;;;;;;5065126;28;20455;-79
2022/01/16 01:29:21;;;;;;;0.50;0.10;;;4.50;1.00;;;;;;5090221;28;20470;-77
2022/01/16 01:31:52;;;;;;;0.50;0.10;;;4.50;1.00;;;;;;5090493;28;20454;-77
2022/01/16 01:34:20;;;;;;;0.50;0.10;;;4.50;1.00;;;;;;5090532;28;20466;-77
2022/01/16 01:36:49;;;;;;;0.50;0.10;;;4.60;1.00;;;;;;5087037;28;20539;-78
2022/01/16 01:39:20;;;;;;;0.50;0.10;;;4.60;1.00;;;;;;5084462;28;20478;-77
2022/01/16 01:41:52;;;;;;;0.50;0.10;;;4.60;1.00;;;;;;5084691;28;20457;-77
2022/01/16 01:52:57;;;;;;;0.50;0.27;;;4.30;1.00;;;;;;5041440;28;20426;-77
2022/01/16 01:55:27;;;;;;;0.60;0.33;;;4.30;1.00;;;;;;5055471;28;20457;-78
2022/01/16 01:57:55;;;;;;;0.50;0.10;;;4.20;1.00;;;;;;5063201;28;20551;-80
2022/01/16 02:00:23;;;;;;;7.40;3.70;;;4.00;1.00;;;;;;5063488;28;20448;-79
2022/01/16 02:03:09;;;;;;;0.50;0.30;;;4.00;1.00;;;;;;5057362;28;20974;-79
2022/01/16 02:05:37;;;;;;;0.50;0.10;;;4.00;1.00;;;;;;5056111;28;20420;-79
2022/01/16 02:08:06;;;;;;;0.50;0.10;;;4.10;1.00;;;;;;5054055;28;20467;-78
2022/01/16 02:10:37;;;;;;;0.60;0.60;;;4.10;1.00;;;;;;5054400;28;20464;-78
2022/01/16 02:13:08;;;;;;;0.50;0.20;;;4.00;1.00;;;;;;5053421;28;20447;-77
2022/01/16 02:27:57;;;;;;;0.50;0.10;;;4.00;1.00;;;;;;5053700;28;20494;-78
2022/01/16 02:30:34;;;;;;;0.50;0.10;;;4.00;1.00;;;;;;5046602;28;20460;-78
2022/01/16 02:33:21;;;;;;;0.50;0.10;;;3.80;1.00;;;;;;5073329;28;20471;-79
2022/01/16 02:35:50;;;;;;;0.60;0.33;;;3.80;1.00;;;;;;5071452;28;20457;-79
2022/01/16 02:38:18;;;;;;;0.50;0.33;;;3.90;1.00;;;;;;5069098;28;20560;-78
2022/01/16 02:40:55;;;;;;;0.90;0.50;;;3.90;1.00;;;;;;5067417;28;20555;-79
2022/01/16 02:43:30;;;;;;;0.50;0.10;;;3.90;1.00;;;;;;5056683;28;20508;-78
2022/01/16 02:46:35;;;;;;;0.50;0.10;;;3.90;1.00;;;;;;5057904;28;20441;-78
2022/01/16 02:48:58;;;;;;;0.50;0.10;;;4.00;1.00;;;;;;5064406;28;20508;-77
2022/01/16 02:51:28;;;;;;;0.50;0.10;;;4.00;1.00;;;;;;5077724;28;20492;-77
2022/01/16 02:53:56;;;;;;;0.50;0.10;;;4.00;1.00;;;;;;5079314;28;20527;-78
2022/01/16 02:56:26;;;;;;;0.50;0.10;;;4.00;1.00;;;;;;5076639;28;20450;-77
2022/01/16 02:58:54;;;;;;;0.50;0.10;;;4.00;1.00;;;;;;5079301;28;20484;-78
2022/01/16 03:01:22;;;;;;;7.70;3.43;;;4.00;1.00;;;;;;5079327;28;20452;-79
2022/01/16 03:03:50;;;;;;;1.10;0.90;;;3.90;1.00;;;;;;5072513;28;20513;-79
2022/01/16 03:06:18;;;;;;;47.20;21.70;;;3.50;1.00;;;;;;5060539;28;20458;-79
2022/01/16 03:08:46;;;;;;;0.50;0.10;;;3.40;1.00;;;;;;5059247;28;20468;-79
2022/01/16 03:11:21;;;;;;;0.50;0.10;;;3.50;1.00;;;;;;5059933;28;20929;-78
2022/01/16 03:13:50;;;;;;;0.50;0.10;;;3.50;1.00;;;;;;5062162;28;20789;-78
2022/01/16 03:16:20;;;;;;;3.63;3.33;;;3.60;1.00;;;;;;5060806;28;20451;-79
2022/01/16 03:21:54;;;;;;;0.50;0.10;;;3.80;1.00;;;;;;5080085;28;20458;-78
2022/01/16 03:24:24;;;;;;;0.50;0.10;;;3.70;1.00;;;;;;5083429;28;20484;-77
2022/01/16 03:26:54;;;;;;;0.50;0.10;;;3.70;1.00;;;;;;5080861;28;20519;-78
2022/01/16 03:29:23;;;;;;;0.50;0.10;;;3.70;1.00;;;;;;5078783;28;20876;-78
2022/01/16 03:31:52;;;;;;;4.40;3.13;;;3.60;1.00;;;;;;5068820;28;20957;-79
2022/01/16 03:34:20;;;;;;;0.60;0.40;;;3.50;1.00;;;;;;5066619;28;20528;-77
2022/01/16 03:36:49;;;;;;;0.50;0.10;;;3.50;1.00;;;;;;5059985;28;20855;-78
2022/01/16 03:39:17;;;;;;;2.93;1.73;;;3.50;1.00;;;;;;5061306;28;20506;-76
2022/01/16 03:41:45;;;;;;;0.50;0.10;;;3.40;1.00;;;;;;5077399;28;20432;-77
2022/01/16 03:44:14;;;;;;;0.50;0.10;;;3.40;1.00;;;;;;5076899;28;20473;-78
2022/01/16 03:46:44;;;;;;;0.50;0.10;;;3.50;1.00;;;;;;5095207;28;20434;-77
2022/01/16 03:49:14;;;;;;;13.43;6.93;;;3.50;1.00;;;;;;5079596;28;20475;-78
2022/01/16 03:51:45;;;;;;;0.50;0.20;;;3.50;1.00;;;;;;5079298;28;20477;-78
2022/01/16 03:54:16;;;;;;;2.97;2.10;;;3.50;1.00;;;;;;5078224;28;20948;-79
2022/01/16 03:56:45;;;;;;;0.50;0.10;;;3.40;1.00;;;;;;5076497;28;20468;-78
2022/01/16 03:59:13;;;;;;;7.37;1.70;;;3.40;1.00;;;;;;5066857;28;20477;-78
2022/01/16 04:01:42;;;;;;;5.80;3.97;;;3.30;1.00;;;;;;5056849;28;20479;-78
2022/01/16 04:04:11;;;;;;;1.63;1.33;;;3.30;1.00;;;;;;5055873;28;20482;-78
2022/01/16 04:06:38;;;;;;;1.07;0.37;;;3.30;1.00;;;;;;5057250;28;20440;-78
2022/01/16 04:09:06;;;;;;;4.73;2.57;;;3.30;1.00;;;;;;5058109;28;20536;-79
2022/01/16 04:11:35;;;;;;;4.93;3.60;;;3.30;1.00;;;;;;5058078;28;20455;-78
2022/01/16 04:14:07;;;;;;;0.50;0.20;;;3.30;1.00;;;;;;5061180;28;20459;-77
2022/01/16 04:16:37;;;;;;;6.33;3.10;;;3.30;1.00;;;;;;5067540;28;20437;-78
2022/01/16 04:19:06;;;;;;;5.10;4.80;;;3.40;1.00;;;;;;5066720;28;20472;-79
2022/01/16 04:21:34;;;;;;;2.40;1.63;;;3.30;1.00;;;;;;5065674;28;20508;-78
2022/01/16 04:24:02;;;;;;;2.37;2.20;;;3.30;1.00;;;;;;5066170;28;20991;-78
2022/01/16 04:26:30;;;;;;;14.90;6.13;;;3.30;1.00;;;;;;5070321;28;20448;-76
2022/01/16 04:28:58;;;;;;;0.60;0.40;;;3.20;1.00;;;;;;5084162;28;20540;-78
2022/01/16 04:31:26;;;;;;;3.33;3.23;;;3.10;1.00;;;;;;5083557;28;20523;-78
2022/01/16 04:33:54;;;;;;;2.37;1.37;;;3.10;1.00;;;;;;5083148;28;20459;-78
2022/01/16 04:36:23;;;;;;;0.50;0.10;;;3.10;1.00;;;;;;5094429;28;20475;-78
2022/01/16 04:38:52;;;;;;;0.50;0.10;;;3.20;1.00;;;;;;5088611;28;21019;-77
2022/01/16 04:44:07;;;;;;;0.50;0.30;;;3.40;1.00;;;;;;5062173;28;20468;-78
2022/01/16 04:46:35;;;;;;;1.17;1.03;;;3.40;1.00;;;;;;5059845;28;20478;-77
2022/01/16 04:49:04;;;;;;;4.73;2.97;;;3.40;1.00;;;;;;5055313;28;20988;-78
2022/01/16 04:51:34;;;;;;;4.43;4.13;;;3.10;1.00;;;;;;5055049;28;20516;-78
2022/01/16 04:54:02;;;;;;;1.53;0.80;;;3.10;1.00;;;;;;5063476;28;20446;-78
2022/01/16 04:56:30;;;;;;;0.50;0.10;;;2.80;1.00;;;;;;5077266;28;20464;-77
2022/01/16 04:58:58;;;;;;;0.50;0.10;;;2.80;1.00;;;;;;5074711;28;20481;-80
2022/01/16 05:01:26;;;;;;;2.10;2.00;;;2.80;1.00;;;;;;5073696;28;20536;-77
2022/01/16 05:03:54;;;;;;;0.50;0.17;;;2.80;1.00;;;;;;5073192;28;20453;-79
2022/01/16 05:06:22;;;;;;;3.80;1.90;;;2.80;1.00;;;;;;5072946;28;20473;-79
2022/01/16 05:08:51;;;;;;;0.70;0.70;;;2.80;1.00;;;;;;5073096;28;20477;-79
2022/01/16 05:11:24;;;;;;;2.30;1.23;;;2.80;1.00;;;;;;5073154;28;20465;-78
2022/01/16 05:16:39;;;;;;;1.70;1.60;;;2.80;1.00;;;;;;5073949;28;20979;-78
2022/01/16 05:19:09;;;;;;;8.43;2.73;;;2.80;1.00;;;;;;5073158;28;20474;-78
2022/01/16 05:21:37;;;;;;;5.50;1.90;;;2.90;1.00;;;;;;5072671;28;20460;-78
2022/01/16 05:24:10;;;;;;;0.60;0.37;;;2.70;1.00;;;;;;5072937;28;20453;-78
2022/01/16 05:26:39;;;;;;;1.97;1.77;;;2.80;1.00;;;;;;5072975;28;20525;-78
2022/01/16 05:29:07;;;;;;;6.57;4.87;;;2.70;1.00;;;;;;5063859;28;21041;-79
2022/01/16 05:31:35;;;;;;;3.30;3.20;;;2.70;1.00;;;;;;5053413;28;20470;-77
2022/01/16 05:34:03;;;;;;;1.47;0.87;;;2.60;1.00;;;;;;5053258;28;20485;-78
2022/01/16 05:36:31;;;;;;;5.20;3.77;;;2.50;1.00;;;;;;5053147;28;20439;-77
2022/01/16 05:38:59;;;;;;;1.53;0.93;;;2.40;1.00;;;;;;5052349;28;20490;-77
2022/01/16 05:41:28;;;;;;;0.60;0.40;;;2.40;1.00;;;;;;5052327;28;20535;-77
2022/01/16 05:43:56;;;;;;;2.13;2.03;;;2.40;1.00;;;;;;5052781;28;20522;-76
2022/01/16 05:46:24;;;;;;;6.30;5.57;;;2.30;1.00;;;;;;5052604;28;20521;-76
2022/01/16 05:48:52;;;;;;;3.17;1.87;;;2.30;1.00;;;;;;5067805;28;21078;-76
2022/01/16 05:51:20;;;;;;;1.03;0.97;;;2.20;1.00;;;;;;5072533;28;20441;-77
2022/01/16 05:53:51;;;;;;;0.50;0.10;;;2.20;1.00;;;;;;5072539;28;20460;-77
2022/01/16 05:56:19;;;;;;;0.50;0.10;;;2.30;1.00;;;;;;5072693;28;20437;-78
2022/01/16 05:58:48;;;;;;;4.20;2.80;;;2.40;1.00;;;;;;5072681;28;20479;-77
2022/01/16 06:01:16;;;;;;;9.23;2.47;;;2.40;1.00;;;;;;5073203;28;20438;-77
2022/01/16 06:03:44;;;;;;;0.50;0.10;;;2.40;1.00;;;;;;5075214;28;20862;-77
2022/01/16 06:06:12;;;;;;;0.90;0.90;;;2.30;1.00;;;;;;5089339;28;20840;-78
2022/01/16 06:08:40;;;;;;;1.33;1.20;;;2.30;1.00;;;;;;5086184;28;20504;-78
2022/01/16 06:11:08;;;;;;;4.13;1.90;;;2.30;1.00;;;;;;5078170;28;20525;-76
2022/01/16 06:13:36;;;;;;;4.73;2.57;;;2.30;1.00;;;;;;5077232;28;20437;-79
2022/01/16 06:16:05;;;;;;;1.57;0.80;;;2.30;1.00;;;;;;5077599;28;20436;-78
2022/01/16 06:18:33;;;;;;;0.70;0.63;;;2.20;1.00;;;;;;5077177;28;20457;-78
2022/01/16 06:21:01;;;;;;;0.97;0.87;;;2.20;1.00;;;;;;5078055;28;20446;-78
2022/01/16 06:23:29;;;;;;;2.30;0.70;;;2.20;1.00;;;;;;5076537;28;20448;-77
2022/01/16 06:25:57;;;;;;;1.73;0.70;;;2.20;1.00;;;;;;5076931;28;20513;-78
2022/01/16 06:28:27;;;;;;;3.60;2.10;;;2.10;1.00;;;;;;5077830;28;20457;-77
2022/01/16 06:30:55;;;;;;;1.67;1.40;;;2.10;1.00;;;;;;5058077;28;20523;-79
2022/01/16 06:33:24;;;;;;;1.27;1.17;;;2.10;1.00;;;;;;5058461;28;20434;-77
2022/01/16 06:35:52;;;;;;;3.00;2.23;;;2.00;1.00;;;;;;5072918;28;20427;-78
2022/01/16 06:38:20;;;;;;;0.80;0.50;;;2.00;1.00;;;;;;5072369;28;20454;-78
2022/01/16 06:40:48;;;;;;;1.53;0.50;;;2.00;1.00;;;;;;5070348;28;20477;-77
2022/01/16 06:43:16;;;;;;;0.50;0.10;;;2.00;1.00;;;;;;5069543;28;20450;-77
2022/01/16 06:45:44;;;;;;;4.53;3.63;;;2.10;1.00;;;;;;5066431;28;20489;-79
2022/01/16 06:48:12;;;;;;;5.03;2.73;;;2.10;1.00;;;;;;5061004;28;20455;-80
2022/01/16 06:50:42;;;;;;;2.30;0.93;;;;;;;;;;5083913;28;20470;-78
2022/01/16 06:53:10;;;;;;;1.17;0.97;;;2.20;1.00;;;;;;5086609;28;20477;-78
2022/01/16 06:55:38;;;;;;;1.10;0.83;;;2.30;1.00;;;;;;5087202;28;20452;-78
2022/01/16 06:58:06;;;;;;;0.50;0.10;;;2.30;1.00;;;;;;5090672;28;20474;-80
2022/01/16 07:00:34;;;;;;;0.60;0.30;;;2.30;1.00;;;;;;5079936;28;20457;-79
2022/01/16 07:03:02;;;;;;;1.43;0.50;;;2.40;1.00;;;;;;5070007;28;20949;-79
2022/01/16 07:05:30;;;;;;;0.87;0.87;;;2.40;1.00;;;;;;5058563;28;20485;-79
2022/01/16 07:07:59;;;;;;;0.50;0.10;;;2.50;1.00;;;;;;5057970;28;20462;-77
2022/01/16 07:10:27;;;;;;;0.50;0.10;;;2.50;1.00;;;;;;5056961;28;20538;-76
2022/01/16 07:12:55;;;;;;;2.83;1.43;;;2.40;1.00;;;;;;5057499;28;20517;-78
2022/01/16 07:15:23;;;;;;;3.80;1.90;;;2.50;1.00;;;;;;5074617;28;20461;-78
2022/01/16 07:17:51;;;;;;;0.90;0.60;;;2.40;1.00;;;;;;5071235;28;20481;-77
2022/01/16 07:20:19;;;;;;;3.00;1.83;;;;;;;;;;5084273;28;20448;-79
2022/01/16 07:22:48;;;;;;;5.40;1.87;;;2.40;1.00;;;;;;5068131;28;20445;-78
2022/01/16 07:25:17;;;;;;;0.70;0.60;;;2.40;1.00;;;;;;5065544;28;20451;-78
2022/01/16 07:27:45;;;;;;;1.70;0.47;;;2.40;1.00;;;;;;5066216;28;20470;-78
2022/01/16 07:30:13;;;;;;;2.03;0.40;;;2.40;1.00;;;;;;5068507;28;20446;-79
2022/01/16 07:32:41;;;;;;;0.70;0.70;;;2.50;1.00;;;;;;5082792;28;20446;-78
2022/01/16 07:35:10;;;;;;;0.50;0.10;;;2.50;1.00;;;;;;5078835;28;20433;-79
2022/01/16 07:37:58;;;;;;;2.10;1.33;;;2.50;1.00;;;;;;5063456;28;20512;-78
2022/01/16 07:40:31;;;;;;;0.50;0.30;;;2.50;1.00;;;;;;5061008;28;20440;-79
2022/01/16 07:42:59;;;;;;;0.97;0.40;;;2.50;1.00;;;;;;5061175;28;20466;-78
2022/01/16 07:45:27;;;;;;;5.73;3.57;;;2.50;1.00;;;;;;5059402;28;20474;-78
2022/01/16 07:47:55;;;;;;;0.60;0.30;;;2.40;1.00;;;;;;5076113;28;20476;-78
2022/01/16 07:50:23;;;;;;;1.87;1.57;;;2.40;1.00;;;;;;5070022;28;20820;-78
2022/01/16 07:52:52;;;;;;;0.60;0.50;;;2.40;1.00;;;;;;5064509;28;20549;-76
2022/01/16 07:55:22;;;;;;;0.60;0.40;;;2.40;1.00;;;;;;5067013;28;20541;-76
2022/01/16 07:57:52;;;;;;;0.50;0.10;;;2.50;1.00;;;;;;5072572;28;20457;-76
2022/01/16 08:00:32;;;;;;;1.03;0.50;;;2.50;1.00;;;;;;5066787;28;20426;-75
2022/01/16 08:03:00;;;;;;;5.90;3.60;;;2.60;1.00;;;;;;5073391;28;20434;-76
2022/01/16 08:05:29;;;;;;;0.50;0.20;;;2.60;1.00;;;;;;5063530;28;20434;-75
2022/01/16 08:07:57;;;;;;;4.43;2.40;;;2.60;1.00;;;;;;5067063;28;20497;-76
2022/01/16 08:10:26;;;;;;;1.83;1.27;;;;;;;;;;5083567;28;20467;-76
2022/01/16 08:12:55;;;;;;;6.90;2.40;;;2.50;1.00;;;;;;5070064;28;20450;-76
2022/01/16 08:15:23;;;;;;;0.90;0.80;;;2.50;1.00;;;;;;5057996;28;20487;-76
2022/01/16 08:17:51;;;;;;;5.40;5.00;;;2.40;1.00;;;;;;5056391;28;20490;-77
2022/01/16 08:20:19;;;;;;;0.93;0.93;;;2.40;1.00;;;;;;5068446;28;20457;-75
2022/01/16 08:22:47;;;;;;;1.83;1.73;;;2.40;1.00;;;;;;5084837;28;20437;-77
2022/01/16 08:25:15;;;;;;;1.87;0.70;;;2.40;1.00;;;;;;5065001;28;20931;-76
2022/01/16 08:27:43;;;;;;;0.50;0.10;;;2.40;1.00;;;;;;5080356;28;20480;-77
2022/01/16 08:30:13;;;;;;;1.23;0.53;;;2.40;1.00;;;;;;5084188;28;20434;-76
2022/01/16 08:32:43;;;;;;;0.60;0.50;;;2.40;1.00;;;;;;5071033;28;20913;-77
2022/01/16 08:35:12;;;;;;;0.90;0.90;;;2.50;1.00;;;;;;5073862;28;20624;-78
2022/01/16 08:37:41;;;;;;;0.90;0.83;;;2.50;1.00;;;;;;5074185;28;20470;-78
2022/01/16 08:40:10;;;;;;;4.00;2.00;;;2.50;1.00;;;;;;5077927;28;20533;-79
2022/01/16 08:42:40;;;;;;;5.40;3.07;;;2.50;1.00;;;;;;5069604;28;20434;-78
2022/01/16 08:45:09;;;;;;;0.60;0.60;;;2.50;1.00;;;;;;5068148;28;20465;-77
2022/01/16 08:47:39;;;;;;;2.17;1.93;;;2.60;1.00;;;;;;5063550;28;20510;-77
2022/01/16 08:50:09;;;;;;;1.70;0.90;;;4.30;1.00;;;;;;5066306;28;20452;-78
2022/01/16 08:52:38;;;;;;;0.90;0.90;;;2.50;1.00;;;;;;5065061;28;20446;-78
2022/01/16 08:55:08;;;;;;;3.03;1.33;;;2.50;1.00;;;;;;5074041;28;20464;-77
2022/01/16 08:57:36;;;;;;;2.73;0.70;;;2.50;1.00;;;;;;5072995;28;20782;-78
2022/01/16 09:00:06;;;;;;;4.20;2.00;;;2.50;1.00;;;;;;5066059;28;20441;-76
2022/01/16 09:02:34;;;;;;;6.10;4.47;;;2.40;1.00;;;;;;5064018;28;20434;-76
2022/01/16 09:05:04;;;;;;;2.20;2.00;;;2.30;1.00;;;;;;5052832;28;20451;-77
2022/01/16 09:07:32;;;;;;;2.80;1.80;;;2.40;1.00;;;;;;5071888;28;20915;-75
2022/01/16 09:10:01;;;;;;;0.50;0.20;;;2.40;1.00;;;;;;5074351;28;20456;-79
2022/01/16 09:12:30;;;;;;;1.40;1.30;;;2.40;1.00;;;;;;5074530;28;20430;-78
2022/01/16 09:14:58;;;;;;;0.50;0.10;;;2.50;1.00;;;;;;5065742;28;20928;-78
2022/01/16 09:17:26;;;;;;;0.70;0.60;;;2.60;1.00;;;;;;5067190;28;20454;-77
2022/01/16 09:19:55;;;;;;;3.33;2.23;;;2.70;1.00;;;;;;5063691;28;20454;-78
2022/01/16 09:22:24;;;;;;;1.80;1.70;;;2.80;1.00;;;;;;5062375;28;20538;-77
2022/01/16 09:24:53;;;;;;;11.43;10.57;;;2.70;1.00;;;;;;5068895;28;20495;-78
2022/01/16 09:27:21;;;;;;;1.17;0.83;;;2.80;1.00;;;;;;5067521;28;20566;-78
2022/01/16 09:29:49;;;;;;;11.53;4.57;;;2.80;1.00;;;;;;5073770;28;20445;-78
2022/01/16 09:32:18;;;;;;;2.30;0.70;;;2.80;1.00;;;;;;5062971;28;20533;-78
2022/01/16 09:34:46;;;;;;;2.10;1.90;;;4.20;1.00;;;;;;5065206;28;20457;-78
2022/01/16 09:37:14;;;;;;;5.50;2.30;;;;;;;;;;5065369;28;20446;-78
2022/01/16 09:39:44;;;;;;;7.37;4.47;;;;;;;;;;5076925;28;20477;-78
2022/01/16 09:42:12;;;;;;;2.10;1.80;;;2.80;1.00;;;;;;5064774;28;20790;-79
2022/01/16 09:44:41;;;;;;;3.03;2.00;;;2.80;1.00;;;;;;5071401;28;20459;-75
2022/01/16 09:47:10;;;;;;;3.07;2.27;;;2.80;1.00;;;;;;5074275;28;20484;-77
2022/01/16 09:49:41;;;;;;;10.03;4.43;;;2.80;1.00;;;;;;5073706;28;20462;-79
2022/01/16 09:52:09;;;;;;;4.07;2.20;;;2.80;1.00;;;;;;5074593;28;20471;-77
2022/01/16 09:54:38;;;;;;;0.73;0.63;;;2.80;1.00;;;;;;5079160;28;20545;-77
2022/01/16 09:57:08;;;;;;;9.27;3.97;;;2.80;1.00;;;;;;5080767;28;20533;-77
2022/01/16 09:59:36;;;;;;;1.10;0.77;;;2.90;1.00;;;;;;5073822;28;20486;-78
2022/01/16 10:02:05;;;;;;;1.60;1.37;;;2.90;1.00;;;;;;5070526;28;20441;-78
2022/01/16 10:04:36;;;;;;;1.10;0.77;;;2.90;1.00;;;;;;5072583;28;20968;-78
2022/01/16 10:07:07;;;;;;;5.33;3.57;;;3.00;1.00;;;;;;5074675;28;20476;-78
2022/01/16 10:09:36;;;;;;;1.83;1.73;;;3.00;1.00;;;;;;5068955;28;20469;-77
2022/01/16 10:12:15;;;;;;;1.13;0.50;;;3.00;1.00;;;;;;5068050;28;20435;-77
2022/01/16 10:14:49;;;;;;;3.07;2.63;;;3.10;1.00;;;;;;5063689;28;20521;-79
2022/01/16 10:17:19;;;;;;;4.60;4.13;;;3.00;1.00;;;;;;5072050;28;20471;-77
2022/01/16 10:19:58;;;;;;;0.60;0.27;;;3.00;1.00;;;;;;5075611;28;20448;-77
2022/01/16 10:22:38;;;;;;;5.20;2.70;;;3.10;1.00;;;;;;5059728;28;20464;-79
2022/01/16 10:25:06;;;;;;;8.83;4.13;;;3.10;1.00;;;;;;5057473;28;20529;-77
2022/01/16 10:27:37;;;;;;;2.17;2.03;;;3.10;1.00;;;;;;5059297;28;20486;-79
2022/01/16 10:30:08;;;;;;;0.60;0.30;;;3.10;1.00;;;;;;5058649;28;20458;-77
2022/01/16 10:32:38;;;;;;;2.23;2.03;;;3.10;1.00;;;;;;5058772;28;20482;-77
2022/01/16 10:35:11;;;;;;;0.60;0.40;;;3.30;1.00;;;;;;5058059;28;20845;-76
2022/01/16 10:37:43;;;;;;;2.03;1.90;;;3.40;1.00;;;;;;5056548;28;20450;-76
2022/01/16 10:40:14;;;;;;;0.60;0.43;;;3.50;1.00;;;;;;5081651;28;20473;-79
2022/01/16 10:42:49;;;;;;;3.40;1.80;;;3.50;1.00;;;;;;5086451;28;20455;-77
2022/01/16 10:45:18;;;;;;;0.77;0.77;;;3.50;1.00;;;;;;5056945;28;20474;-77
2022/01/16 10:47:51;;;;;;;11.53;2.87;;;3.50;1.00;;;;;;5057775;28;20485;-77
2022/01/16 10:50:20;;;;;;;2.20;1.30;;;3.50;1.00;;;;;;5057673;28;20457;-77
2022/01/16 10:52:55;;;;;;;0.70;0.47;;;3.50;1.00;;;;;;5063855;28;20449;-75
2022/01/16 10:55:31;;;;;;;1.90;1.80;;;3.60;1.00;;;;;;5078631;28;20547;-75
2022/01/16 10:58:07;;;;;;;0.50;0.10;;;3.50;1.00;;;;;;5081103;28;20466;-78
2022/01/16 11:00:35;;;;;;;1.37;0.77;;;3.60;1.00;;;;;;5078772;28;20541;-77
2022/01/16 11:03:06;;;;;;;2.03;1.93;;;3.60;1.00;;;;;;5078316;28;20804;-77
2022/01/16 11:05:36;;;;;;;1.30;1.20;;;3.60;1.00;;;;;;5076623;28;20512;-75
2022/01/16 11:08:07;;;;;;;7.43;6.00;;;3.50;1.00;;;;;;5076372;28;20478;-76
2022/01/16 11:10:37;;;;;;;2.03;1.37;;;3.40;1.00;;;;;;5057791;28;20468;-76
2022/01/16 11:13:08;;;;;;;4.80;4.40;;;3.30;1.00;;;;;;5063624;28;20502;-78
2022/01/16 11:15:38;;;;;;;0.50;0.10;;;3.50;1.00;;;;;;5063521;28;20551;-78
2022/01/16 11:18:08;;;;;;;3.73;2.50;;;3.30;1.00;;;;;;5062023;28;20481;-77
2022/01/16 11:20:38;;;;;;;4.20;3.80;;;3.30;1.00;;;;;;5076483;28;20448;-78
2022/01/16 11:23:16;;;;;;;10.03;5.60;;;3.20;1.00;;;;;;5069975;28;20450;-78
2022/01/16 11:25:45;;;;;;;11.10;5.63;;;3.20;1.00;;;;;;5067355;28;20853;-78
2022/01/16 11:28:18;;;;;;;3.90;3.10;;;3.10;1.00;;;;;;5067401;28;20485;-79
2022/01/16 11:30:49;;;;;;;5.83;4.17;;;3.10;1.00;;;;;;5068582;28;20471;-76
2022/01/16 11:33:22;;;;;;;14.73;3.40;;;2.90;1.00;;;;;;5071214;28;20457;-76
2022/01/16 11:35:53;;;;;;;7.83;5.93;;;2.90;1.00;;;;;;5073398;28;20450;-79
2022/01/16 11:38:23;;;;;;;11.57;5.93;;;2.90;1.00;;;;;;5078111;28;20476;-79
2022/01/16 11:40:51;;;;;;;4.93;2.77;;;2.90;1.00;;;;;;5094264;28;20519;-78
2022/01/16 11:43:31;;;;;;;11.60;5.90;;;2.80;1.00;;;;;;5086579;28;20511;-77
2022/01/16 11:46:09;;;;;;;6.83;4.57;;;2.80;1.00;;;;;;5060529;28;20837;-76
2022/01/16 11:48:55;;;;;;;1.20;1.10;;;2.90;1.00;;;;;;5057427;28;20928;-77
2022/01/16 11:51:59;;;;;;;1.67;1.20;;;2.90;1.00;;;;;;5057749;28;20538;-76
2022/01/16 11:54:30;;;;;;;1.53;1.27;;;3.00;1.00;;;;;;5061742;28;20450;-76
2022/01/16 11:57:20;;;;;;;4.50;1.90;;;3.00;1.00;;;;;;5084395;28;20816;-77
2022/01/16 11:59:53;;;;;;;0.93;0.93;;;3.00;1.00;;;;;;5087242;28;20484;-77
2022/01/16 12:02:24;;;;;;;5.10;4.13;;;3.00;1.00;;;;;;5097555;28;20433;-78
2022/01/16 12:05:04;;;;;;;6.77;2.77;;;3.00;1.00;;;;;;5091443;28;20520;-77
2022/01/16 12:08:00;;;;;;;1.77;1.23;;;3.00;1.00;;;;;;5078602;28;20538;-76
2022/01/16 12:10:54;;;;;;;0.50;0.10;;;3.00;1.00;;;;;;5075879;28;20868;-77
2022/01/16 12:13:53;;;;;;;0.77;0.77;;;3.00;1.00;;;;;;5075891;28;20473;-77
2022/01/16 12:16:49;;;;;;;6.73;6.03;;;3.20;1.00;;;;;;5079010;28;20450;-78
2022/01/16 12:19:45;;;;;;;11.17;5.27;;;3.20;1.00;;;;;;5078917;28;20462;-77
2022/01/16 12:22:42;;;;;;;1.00;0.97;;;3.20;1.00;;;;;;5075881;28;20430;-77
2022/01/16 12:25:17;;;;;;;1.77;1.17;;;3.20;1.00;;;;;;5046346;28;20487;-77
2022/01/16 12:27:50;;;;;;;2.40;1.80;;;3.20;1.00;;;;;;5055411;28;20925;-77
2022/01/16 12:30:38;;;;;;;0.50;0.27;;;3.20;1.00;;;;;;5055659;28;20483;-76
2022/01/16 12:33:21;;;;;;;0.50;0.10;;;3.30;1.00;;;;;;5060190;28;20505;-77
2022/01/16 12:36:10;;;;;;;0.93;0.50;;;3.30;1.00;;;;;;5076127;28;20471;-78
2022/01/16 12:38:54;;;;;;;1.03;1.03;;;3.40;1.00;;;;;;5075539;28;20536;-77
2022/01/16 12:41:28;;;;;;;1.10;0.80;;;3.50;1.00;;;;;;5076525;28;20797;-77
2022/01/16 12:43:59;;;;;;;1.50;1.13;;;3.40;1.00;;;;;;5071681;28;20445;-77
2022/01/16 12:46:31;;;;;;;7.80;3.70;;;3.50;1.00;;;;;;5074412;28;20789;-77
2022/01/16 12:49:03;;;;;;;4.33;4.10;;;3.50;1.00;;;;;;5073754;28;20560;-77
2022/01/16 12:51:35;;;;;;;2.03;1.80;;;3.50;1.00;;;;;;5066794;28;20453;-75
2022/01/16 12:54:07;;;;;;;1.00;0.83;;;3.60;1.00;;;;;;5081331;28;20449;-78
2022/01/16 12:56:37;;;;;;;1.03;0.93;;;3.70;1.00;;;;;;5093273;28;20451;-77
2022/01/16 12:59:12;;;;;;;7.17;5.50;;;3.70;1.00;;;;;;5071259;28;20895;-78
2022/01/16 13:01:46;;;;;;;0.73;0.73;;;3.80;1.00;;;;;;5061295;28;20482;-76
2022/01/16 13:04:26;;;;;;;3.70;3.43;;;3.80;1.00;;;;;;5074144;28;20892;-76
2022/01/16 13:06:55;;;;;;;1.30;1.27;;;3.90;1.00;;;;;;5073764;28;20958;-76
2022/01/16 13:09:23;;;;;;;0.50;0.10;;;4.00;1.00;;;;;;5073886;28;20494;-76
2022/01/16 13:11:53;;;;;;;0.50;0.20;;;4.00;1.00;;;;;;5072750;28;20779;-77
2022/01/16 13:14:25;;;;;;;3.17;2.80;;;4.00;1.00;;;;;;5078864;28;20482;-75
2022/01/16 13:16:55;;;;;;;16.60;15.47;;;3.90;1.00;;;;;;5097099;28;20437;-76
2022/01/16 13:19:26;;;;;;;0.50;0.10;;;3.90;1.00;;;;;;5100471;28;20460;-75
2022/01/16 13:22:11;;;;;;;2.50;2.30;;;4.00;1.00;;;;;;5087694;28;20444;-77
2022/01/16 13:24:44;;;;;;;0.70;0.57;;;4.10;1.00;;;;;;5079824;28;20541;-75
2022/01/16 13:27:16;;;;;;;2.60;1.50;;;4.10;1.00;;;;;;5068461;28;20817;-77
2022/01/16 13:29:45;;;;;;;0.77;0.63;;;4.10;1.00;;;;;;5081332;28;20518;-76
2022/01/16 13:32:15;;;;;;;0.50;0.10;;;4.10;1.00;;;;;;5079601;28;20460;-77
2022/01/16 13:34:49;;;;;;;0.63;0.57;;;4.10;1.00;;;;;;5080924;28;20538;-76
2022/01/16 13:37:21;;;;;;;0.60;0.50;;;4.30;1.00;;;;;;5073905;28;20954;-76
2022/01/16 13:39:52;;;;;;;0.50;0.10;;;4.30;1.00;;;;;;5076673;28;20425;-77
2022/01/16 13:42:29;;;;;;;0.60;0.40;;;4.40;1.00;;;;;;5076771;28;20534;-75
2022/01/16 13:45:18;;;;;;;0.50;0.10;;;4.50;1.00;;;;;;5078905;28;20445;-76
2022/01/16 13:47:55;;;;;;;3.73;2.67;;;4.50;1.00;;;;;;5075537;28;20468;-76
2022/01/16 13:50:28;;;;;;;1.30;1.20;;;4.50;1.00;;;;;;5074912;28;20547;-78
2022/01/16 13:52:57;;;;;;;0.50;0.10;;;4.50;1.00;;;;;;5074337;28;20457;-77
2022/01/16 13:55:27;;;;;;;0.50;0.20;;;4.60;1.00;;;;;;5071548;28;20447;-75
2022/01/16 13:57:56;;;;;;;0.50;0.10;;;4.60;1.00;;;;;;5067874;28;20549;-76